createdAt,value
2018-11-23T00:03:20.227Z,6.95
2018-11-23T00:07:23.738Z,6.92
2018-11-23T00:11:27.295Z,6.91
2018-11-23T00:15:30.853Z,6.90
2018-11-23T00:19:34.410Z,6.91
2018-11-23T00:23:37.894Z,6.90
2018-11-23T00:27:41.450Z,6.87
2018-11-23T00:31:44.970Z,6.84
2018-11-23T00:35:48.579Z,6.83
2018-11-23T00:39:52.084Z,6.81
2018-11-23T00:43:55.644Z,6.80
2018-11-23T00:47:59.751Z,6.80
2018-11-23T00:52:03.270Z,6.82
2018-11-23T00:56:06.774Z,6.83
2018-11-23T01:00:20.567Z,6.86
2018-11-23T01:04:24.075Z,6.77
2018-11-23T01:08:27.615Z,6.77
2018-11-23T01:12:31.104Z,6.79
2018-11-23T01:16:34.617Z,6.79
2018-11-23T01:20:38.209Z,6.82
2018-11-23T01:24:41.699Z,6.85
2018-11-23T01:28:45.237Z,6.83
2018-11-23T01:32:48.749Z,6.82
2018-11-23T01:36:52.329Z,6.81
2018-11-23T01:40:55.918Z,6.81
2018-11-23T01:44:59.391Z,6.81
2018-11-23T01:49:02.946Z,6.79
2018-11-23T01:53:06.458Z,6.79
2018-11-23T01:57:09.957Z,6.79
2018-11-23T02:01:13.515Z,6.76
2018-11-23T02:05:17.049Z,6.74
2018-11-23T02:09:20.632Z,6.73
2018-11-23T02:13:24.138Z,6.75
2018-11-23T02:17:27.625Z,6.73
2018-11-23T02:21:31.123Z,6.72
2018-11-23T02:25:34.783Z,6.70
2018-11-23T02:29:38.310Z,6.70
2018-11-23T02:33:42.116Z,6.70
2018-11-23T02:37:45.635Z,6.69
2018-11-23T02:41:49.172Z,6.72
2018-11-23T02:45:52.733Z,6.68
2018-11-23T02:49:56.257Z,6.69
2018-11-23T02:53:59.721Z,6.68
2018-11-23T02:58:04.088Z,6.66
2018-11-23T03:02:07.611Z,6.66
2018-11-23T03:06:11.143Z,6.66
2018-11-23T03:10:15.570Z,6.64
2018-11-23T03:14:19.075Z,6.64
2018-11-23T03:18:22.556Z,6.64
2018-11-23T03:22:26.099Z,6.63
2018-11-23T03:26:29.678Z,6.62
2018-11-23T03:30:33.247Z,6.61
2018-11-23T03:34:37.723Z,6.62
2018-11-23T03:38:41.359Z,6.63
2018-11-23T03:42:44.867Z,6.63
2018-11-23T03:46:48.424Z,6.63
2018-11-23T03:50:51.953Z,6.62
2018-11-23T03:54:55.586Z,6.62
2018-11-23T03:58:59.337Z,6.62
2018-11-23T04:03:03.573Z,6.59
2018-11-23T04:07:08.171Z,6.60
2018-11-23T04:11:11.789Z,6.61
2018-11-23T04:15:16.613Z,6.60
2018-11-23T04:19:22.560Z,6.61
2018-11-23T04:23:26.521Z,6.65
2018-11-23T04:27:30.969Z,6.66
2018-11-23T04:31:34.801Z,6.68
2018-11-23T04:35:38.699Z,6.68
2018-11-23T04:39:42.594Z,6.71
2018-11-23T04:43:46.530Z,6.71
2018-11-23T04:47:50.349Z,6.73
2018-11-23T04:51:54.191Z,6.73
2018-11-23T04:55:58.279Z,6.75
2018-11-23T05:00:02.578Z,6.77
2018-11-23T05:04:06.412Z,6.79
2018-11-23T05:08:10.105Z,6.80
2018-11-23T05:12:15.131Z,6.79
2018-11-23T05:16:19.021Z,6.82
2018-11-23T05:20:23.541Z,6.83
2018-11-23T05:24:31.516Z,6.83
2018-11-23T05:28:35.676Z,6.84
2018-11-23T05:32:40.110Z,6.84
2018-11-23T05:36:44.055Z,6.86
2018-11-23T05:40:48.123Z,6.84
2018-11-23T05:44:56.204Z,6.83
2018-11-23T05:49:00.218Z,6.83
2018-11-23T05:53:05.072Z,6.83
2018-11-23T05:57:09.128Z,6.79
2018-11-23T06:01:13.200Z,6.79
2018-11-23T06:05:18.105Z,6.79
2018-11-23T06:09:22.245Z,6.79
2018-11-23T06:13:28.186Z,6.78
2018-11-23T06:17:32.092Z,6.82
2018-11-23T06:21:35.966Z,6.81
2018-11-23T06:25:42.624Z,6.78
2018-11-23T06:29:46.577Z,6.82
2018-11-23T06:33:50.697Z,6.86
2018-11-23T06:37:54.526Z,6.87
2018-11-23T06:42:05.693Z,6.88
2018-11-23T06:46:11.777Z,6.85
2018-11-23T06:50:16.026Z,6.83
2018-11-23T06:54:20.115Z,6.86
2018-11-23T06:58:24.097Z,6.85
2018-11-23T07:02:27.957Z,6.86
2018-11-23T07:06:31.784Z,6.85
2018-11-23T07:10:35.689Z,6.83
2018-11-23T07:14:40.636Z,6.82
2018-11-23T07:18:44.608Z,6.85
2018-11-23T07:22:48.455Z,6.87
2018-11-23T07:26:52.429Z,6.87
2018-11-23T07:31:02.090Z,6.89
2018-11-23T07:35:01.318Z,6.87
2018-11-23T07:39:06.504Z,6.87
2018-11-23T07:43:10.334Z,6.87
2018-11-23T07:47:14.203Z,6.90
2018-11-23T07:51:17.952Z,6.91
2018-11-23T07:55:21.534Z,6.92
2018-11-23T07:59:25.314Z,6.94
2018-11-23T08:03:28.840Z,6.92
2018-11-23T08:07:32.460Z,6.92
2018-11-23T08:11:36.255Z,6.92
2018-11-23T08:15:39.791Z,6.95
2018-11-23T08:19:47.401Z,6.97
2018-11-23T08:23:47.027Z,7.03
2018-11-23T08:27:51.819Z,7.01
2018-11-23T08:31:55.391Z,7.00
2018-11-23T08:35:58.954Z,7.02
2018-11-23T08:40:03.606Z,7.01
2018-11-23T08:44:07.230Z,6.98
2018-11-23T08:48:10.835Z,7.01
2018-11-23T08:52:14.417Z,7.02
2018-11-23T08:56:18.635Z,7.03
2018-11-23T09:00:27.737Z,7.05
2018-11-23T09:04:31.339Z,7.06
2018-11-23T09:08:34.946Z,7.07
2018-11-23T09:12:38.667Z,7.06
2018-11-23T09:16:42.272Z,7.08
2018-11-23T09:20:46.793Z,7.08
2018-11-23T09:24:50.387Z,7.12
2018-11-23T09:28:55.867Z,7.16
2018-11-23T09:32:59.621Z,7.16
2018-11-23T09:37:04.852Z,7.19
2018-11-23T09:41:08.415Z,7.19
2018-11-23T09:45:18.710Z,7.20
2018-11-23T09:49:22.665Z,7.21
2018-11-23T09:53:28.767Z,7.22
2018-11-23T09:57:32.535Z,7.26
2018-11-23T10:01:36.272Z,7.28
2018-11-23T10:05:39.799Z,7.26
2018-11-23T10:09:43.367Z,7.27
2018-11-23T10:13:58.411Z,7.32
2018-11-23T10:18:02.810Z,7.36
2018-11-23T10:22:06.710Z,7.37
2018-11-23T10:26:10.434Z,7.36
2018-11-23T10:30:17.025Z,7.37
2018-11-23T10:34:33.826Z,7.41
2018-11-23T10:38:38.599Z,7.39
2018-11-23T10:42:42.589Z,7.40
2018-11-23T10:46:46.746Z,7.40
2018-11-23T10:50:53.851Z,7.65
2018-11-23T10:54:57.497Z,7.67
2018-11-23T10:59:01.292Z,7.61
2018-11-23T11:03:10.075Z,7.60
2018-11-23T11:07:13.916Z,7.61
2018-11-23T11:11:17.720Z,7.67
2018-11-23T11:15:21.751Z,7.70
2018-11-23T11:19:25.403Z,7.70
2018-11-23T11:23:28.923Z,7.67
2018-11-23T11:27:32.433Z,7.64
2018-11-23T11:31:35.942Z,7.68
2018-11-23T11:35:39.505Z,7.66
2018-11-23T11:39:43.193Z,7.64
2018-11-23T11:43:46.782Z,7.62
2018-11-23T11:47:50.345Z,7.61
2018-11-23T11:51:53.832Z,7.62
2018-11-23T11:55:57.408Z,7.58
2018-11-23T12:00:01.364Z,7.58
2018-11-23T12:04:05.026Z,7.59
2018-11-23T12:08:08.597Z,7.54
2018-11-23T12:12:12.153Z,7.57
2018-11-23T12:16:15.706Z,7.59
2018-11-23T12:20:21.642Z,7.62
2018-11-23T12:24:25.277Z,7.62
2018-11-23T12:28:29.836Z,7.65
2018-11-23T12:32:33.902Z,7.66
2018-11-23T12:36:38.764Z,7.66
2018-11-23T12:40:43.147Z,7.67
2018-11-23T12:44:46.938Z,7.67
2018-11-23T12:48:53.432Z,7.71
2018-11-23T12:53:06.175Z,7.68
2018-11-23T12:57:04.141Z,7.68
2018-11-23T13:01:08.014Z,7.67
2018-11-23T13:05:11.859Z,7.64
2018-11-23T13:09:15.858Z,7.65
2018-11-23T13:13:19.889Z,7.68
2018-11-23T13:17:23.931Z,7.72
2018-11-23T13:21:27.841Z,7.73
2018-11-23T13:25:33.105Z,7.72
2018-11-23T13:29:36.957Z,7.70
2018-11-23T13:33:40.890Z,7.72
2018-11-23T13:37:45.724Z,7.74
2018-11-23T13:41:49.679Z,7.73
2018-11-23T13:45:54.420Z,7.74
2018-11-23T13:49:59.973Z,7.75
2018-11-23T13:54:04.211Z,7.72
2018-11-23T13:58:08.428Z,7.71
2018-11-23T14:02:13.448Z,7.72
2018-11-23T14:06:17.342Z,7.75
2018-11-23T14:10:23.258Z,7.75
2018-11-23T14:14:27.973Z,7.74
2018-11-23T14:18:32.353Z,7.71
2018-11-23T14:22:37.750Z,7.70
2018-11-23T14:26:41.588Z,7.70
2018-11-23T14:30:47.516Z,7.70
2018-11-23T14:34:52.079Z,7.70
2018-11-23T14:38:56.783Z,7.67
2018-11-23T14:43:00.781Z,7.68
2018-11-23T14:47:04.866Z,7.69
2018-11-23T14:51:09.459Z,7.72
2018-11-23T14:55:14.158Z,7.68
2018-11-23T14:59:18.557Z,7.70
2018-11-23T15:03:23.332Z,7.70
2018-11-23T15:07:27.534Z,7.69
2018-11-23T15:11:31.286Z,7.68
2018-11-23T15:15:36.883Z,7.68
2018-11-23T15:19:40.482Z,7.71
2018-11-23T15:23:44.540Z,7.70
2018-11-23T15:27:48.156Z,7.70
2018-11-23T15:31:51.710Z,7.68
2018-11-23T15:35:55.207Z,7.70
2018-11-23T15:39:58.764Z,7.73
2018-11-23T15:44:02.304Z,7.75
2018-11-23T15:48:06.842Z,7.76
2018-11-23T15:52:10.346Z,7.73
2018-11-23T15:56:14.218Z,7.72
2018-11-23T16:00:21.279Z,7.73
2018-11-23T16:04:24.788Z,7.71
2018-11-23T16:08:28.303Z,7.69
2018-11-23T16:12:32.043Z,7.69
2018-11-23T16:16:36.918Z,7.68
2018-11-23T16:20:42.765Z,7.66
2018-11-23T16:24:46.413Z,7.67
2018-11-23T16:28:49.971Z,7.66
2018-11-23T16:32:54.630Z,7.68
2018-11-23T16:36:58.156Z,7.65
2018-11-23T16:41:01.644Z,7.67
2018-11-23T16:45:06.990Z,7.68
2018-11-23T16:49:10.510Z,7.68
2018-11-23T16:53:14.143Z,7.69
2018-11-23T16:57:17.953Z,7.68
2018-11-23T17:01:21.484Z,7.67
2018-11-23T17:05:26.862Z,7.65
2018-11-23T17:09:30.606Z,7.66
2018-11-23T17:13:34.180Z,7.65
2018-11-23T17:17:38.015Z,7.65
2018-11-23T17:21:41.670Z,7.66
2018-11-23T17:25:45.219Z,7.69
2018-11-23T17:29:48.776Z,7.70
2018-11-23T17:33:52.754Z,7.70
2018-11-23T17:37:56.327Z,7.69
2018-11-23T17:41:59.882Z,7.67
2018-11-23T17:46:03.476Z,7.64
2018-11-23T17:50:09.575Z,7.64
2018-11-23T17:54:13.187Z,7.64
2018-11-23T17:58:16.765Z,7.62
2018-11-23T18:02:23.505Z,7.63
2018-11-23T18:06:27.087Z,7.61
2018-11-23T18:10:31.666Z,7.60
2018-11-23T18:14:35.198Z,7.58
2018-11-23T18:18:38.725Z,7.56
2018-11-23T18:22:42.410Z,7.57
2018-11-23T18:26:45.951Z,7.60
2018-11-23T18:30:49.882Z,7.59
2018-11-23T18:34:53.496Z,7.54
2018-11-23T18:38:57.106Z,7.53
2018-11-23T18:43:00.730Z,7.49
2018-11-23T18:47:04.291Z,7.46
2018-11-23T18:51:07.840Z,7.47
2018-11-23T18:55:17.913Z,7.48
2018-11-23T18:59:15.865Z,7.49
2018-11-23T19:03:19.489Z,7.47
2018-11-23T19:07:23.274Z,7.48
2018-11-23T19:11:26.771Z,7.50
2018-11-23T19:15:30.591Z,7.52
2018-11-23T19:19:35.068Z,7.52
2018-11-23T19:23:39.155Z,7.53
2018-11-23T19:27:42.917Z,7.53
2018-11-23T19:31:46.640Z,7.52
2018-11-23T19:35:50.352Z,7.54
2018-11-23T19:39:54.227Z,7.50
2018-11-23T19:43:58.335Z,7.51
2018-11-23T19:48:03.338Z,7.53
2018-11-23T19:52:06.968Z,7.51
2018-11-23T19:56:10.733Z,7.51
2018-11-23T20:00:23.006Z,7.50
2018-11-23T20:04:26.686Z,7.53
2018-11-23T20:08:30.309Z,7.52
2018-11-23T20:12:34.393Z,7.51
2018-11-23T20:16:38.080Z,7.53
2018-11-23T20:20:41.755Z,7.53
2018-11-23T20:24:45.298Z,7.57
2018-11-23T20:28:48.914Z,7.53
2018-11-23T20:32:52.472Z,7.54
2018-11-23T20:36:55.971Z,7.54
2018-11-23T20:40:59.543Z,7.53
2018-11-23T20:45:03.163Z,7.52
2018-11-23T20:49:06.666Z,7.52
2018-11-23T20:53:10.232Z,7.49
2018-11-23T20:57:13.819Z,7.46
2018-11-23T21:01:17.383Z,7.44
2018-11-23T21:05:21.682Z,7.41
2018-11-23T21:09:31.068Z,7.40
2018-11-23T21:13:28.907Z,7.39
2018-11-23T21:17:32.511Z,7.41
2018-11-23T21:21:36.231Z,7.40
2018-11-23T21:25:39.695Z,7.40
2018-11-23T21:29:43.249Z,7.40
2018-11-23T21:33:46.779Z,7.38
2018-11-23T21:37:50.295Z,7.40
2018-11-23T21:41:53.802Z,7.39
2018-11-23T21:45:57.304Z,7.38
2018-11-23T21:50:00.884Z,7.39
2018-11-23T21:54:04.434Z,7.41
2018-11-23T21:58:08.425Z,7.41
2018-11-23T22:02:12.076Z,7.41
2018-11-23T22:06:15.926Z,7.43
2018-11-23T22:10:20.106Z,7.42
2018-11-23T22:14:23.675Z,7.44
2018-11-23T22:18:27.287Z,7.45
2018-11-23T22:22:30.902Z,7.43
2018-11-23T22:26:34.530Z,7.43
2018-11-23T22:30:38.098Z,7.44
2018-11-23T22:34:41.714Z,7.46
2018-11-23T22:38:45.655Z,7.46
2018-11-23T22:42:51.395Z,7.44
2018-11-23T22:46:55.028Z,7.43
2018-11-23T22:50:58.660Z,7.41
2018-11-23T22:55:02.168Z,7.41
2018-11-23T22:59:05.964Z,7.42
2018-11-23T23:03:09.784Z,7.40
2018-11-23T23:07:13.398Z,7.42
2018-11-23T23:11:17.360Z,7.45
2018-11-23T23:15:22.029Z,7.43
2018-11-23T23:19:25.736Z,7.44
2018-11-23T23:23:29.223Z,7.42
2018-11-23T23:27:32.753Z,7.44
2018-11-23T23:31:36.273Z,7.44
2018-11-23T23:35:39.805Z,7.43
2018-11-23T23:39:43.355Z,7.42
2018-11-23T23:43:46.814Z,7.42
2018-11-23T23:47:50.369Z,7.42
2018-11-23T23:51:54.640Z,7.42
2018-11-23T23:55:58.222Z,7.41
